Time;durP1;ratioP1;P1;durP2;ratioP2;P2;SDS_P1;SDS_P2;PMS_P1;PMS_P2;Temp;Humidity;BMP_temperature;BMP_pressure;BME280_temperature;BME280_humidity;BME280_pressure;Samples;Min_cycle;Max_cycle;Signal;HPM_P1;HPM_P2
2022/01/25 00:10:41;;;;;;;59.47;34.75;;;4.80;99.90;;;;;;4954851;29;20440;-95
2022/01/25 00:26:41;;;;;;;64.55;38.58;;;4.80;99.90;;;;;;4950734;29;20050;-93
2022/01/25 00:31:34;;;;;;;61.63;36.30;;;4.80;99.90;;;;;;4944065;29;20113;-95
2022/01/25 00:34:00;;;;;;;59.63;35.30;;;4.80;99.90;;;;;;4939524;29;20035;-94
2022/01/25 00:36:27;;;;;;;65.18;38.45;;;4.80;99.90;;;;;;4939532;29;20031;-95
2022/01/25 00:38:54;;;;;;;65.30;38.00;;;4.80;99.90;;;;;;4954225;29;20034;-94
2022/01/25 00:41:22;;;;;;;64.57;38.13;;;4.80;99.90;;;;;;4938167;29;20027;-93
2022/01/25 00:43:48;;;;;;;68.15;38.70;;;4.80;99.90;;;;;;4935016;29;20042;-94
2022/01/25 00:46:16;;;;;;;64.07;38.63;;;4.80;99.90;;;;;;4932122;29;20047;-94
2022/01/25 00:48:45;;;;;;;68.15;39.67;;;4.80;99.90;;;;;;4938138;29;20035;-95
2022/01/25 00:51:24;;;;;;;71.78;40.15;;;4.80;99.90;;;;;;4939302;29;20054;-93
2022/01/25 00:56:30;;;;;;;72.00;42.53;;;4.80;99.90;;;;;;4955050;28;20039;-94
2022/01/25 00:58:56;;;;;;;68.63;40.42;;;4.80;99.90;;;;;;4935919;29;20495;-94
2022/01/25 01:01:22;;;;;;;69.07;40.40;;;4.80;99.90;;;;;;4937385;29;20075;-93
2022/01/25 01:03:48;;;;;;;72.97;42.30;;;4.80;99.90;;;;;;4955466;28;20031;-94
2022/01/25 01:06:15;;;;;;;72.90;42.70;;;4.80;99.90;;;;;;4934995;29;20463;-94
2022/01/25 01:08:41;;;;;;;75.78;43.22;;;4.80;99.90;;;;;;4934862;29;20024;-94
2022/01/25 01:11:11;;;;;;;76.10;39.50;;;4.80;99.90;;;;;;4935335;29;20091;-94
2022/01/25 01:30:07;;;;;;;72.22;40.63;;;4.80;99.90;;;;;;4929361;29;20043;-94
2022/01/25 01:43:33;;;;;;;82.70;46.58;;;4.80;99.90;;;;;;4924971;29;20027;-94
2022/01/25 01:48:58;;;;;;;82.10;45.50;;;4.80;99.90;;;;;;4934837;29;20032;-94
2022/01/25 01:51:33;;;;;;;77.80;42.72;;;4.80;99.90;;;;;;4925889;29;20028;-94
2022/01/25 01:54:06;;;;;;;84.63;46.20;;;4.80;99.90;;;;;;4923345;29;20034;-94
2022/01/25 01:56:32;;;;;;;80.40;45.85;;;4.90;99.90;;;;;;4927457;29;20032;-93
2022/01/25 01:59:00;;;;;;;87.03;48.35;;;4.80;99.90;;;;;;4926892;29;20123;-94
2022/01/25 02:01:28;;;;;;;84.03;45.40;;;4.80;99.90;;;;;;4933447;29;20122;-94
2022/01/25 02:03:55;;;;;;;85.47;47.53;;;4.90;99.90;;;;;;4931249;29;20392;-94
2022/01/25 02:06:20;;;;;;;78.95;44.63;;;4.90;99.90;;;;;;4922335;29;20056;-93
2022/01/25 02:08:46;;;;;;;81.30;45.03;;;4.90;99.90;;;;;;4946732;29;20402;-93
2022/01/25 02:11:12;;;;;;;79.82;45.40;;;4.90;99.90;;;;;;4953555;29;20039;-93
2022/01/25 02:13:40;;;;;;;85.18;47.53;;;4.90;99.90;;;;;;4935542;29;20035;-94
2022/01/25 02:16:09;;;;;;;83.90;46.88;;;4.80;99.90;;;;;;4953988;29;20047;-95
2022/01/25 02:24:04;;;;;;;84.63;44.58;;;4.80;99.90;;;;;;4954109;29;20102;-95
2022/01/25 02:26:29;;;;;;;75.80;43.13;;;4.80;99.90;;;;;;4933519;29;20027;-95
2022/01/25 02:28:55;;;;;;;83.40;45.88;;;4.80;99.90;;;;;;4937816;29;20448;-95
2022/01/25 02:31:21;;;;;;;83.47;46.25;;;4.80;99.90;;;;;;4936232;29;20078;-94
2022/01/25 02:33:46;;;;;;;76.82;43.80;;;4.70;99.90;;;;;;4952384;28;20090;-94
2022/01/25 02:36:15;;;;;;;85.28;45.88;;;4.70;99.90;;;;;;4937779;29;20043;-94
2022/01/25 02:38:41;;;;;;;88.07;46.85;;;4.70;99.90;;;;;;4937393;29;20455;-95
2022/01/25 02:41:07;;;;;;;83.45;47.03;;;4.70;99.90;;;;;;4952095;29;20035;-93
2022/01/25 02:43:35;;;;;;;87.07;47.85;;;4.80;99.90;;;;;;4933714;29;20024;-94
2022/01/25 02:48:56;;;;;;;91.00;47.10;;;4.70;99.90;;;;;;4949127;29;20023;-94
2022/01/25 02:51:31;;;;;;;86.10;46.65;;;4.70;99.90;;;;;;4949832;29;20031;-94
2022/01/25 02:53:56;;;;;;;84.18;46.88;;;4.70;99.90;;;;;;4931832;29;20114;-95
2022/01/25 02:56:23;;;;;;;89.00;46.08;;;4.70;99.90;;;;;;4942402;29;20504;-95
2022/01/25 02:58:49;;;;;;;76.32;43.08;;;4.70;99.90;;;;;;4938996;29;20062;-95
2022/01/25 03:01:15;;;;;;;88.43;47.15;;;4.70;99.90;;;;;;4937001;29;20443;-94
2022/01/25 03:03:41;;;;;;;80.10;45.60;;;4.70;99.90;;;;;;4936444;29;20019;-94
2022/01/25 03:06:07;;;;;;;84.43;47.92;;;4.70;99.90;;;;;;4937650;29;20057;-94
2022/01/25 03:08:33;;;;;;;80.43;45.30;;;4.70;99.90;;;;;;4953744;29;20039;-93
2022/01/25 03:10:58;;;;;;;74.20;41.90;;;4.70;99.90;;;;;;4946996;29;20031;-95
2022/01/25 03:13:31;;;;;;;78.63;43.00;;;4.70;99.90;;;;;;4951697;29;20030;-95
2022/01/25 03:16:02;;;;;;;81.00;45.67;;;4.70;99.90;;;;;;4957917;29;20035;-94
2022/01/25 03:21:02;;;;;;;76.53;42.55;;;4.70;99.90;;;;;;4955019;29;20043;-94
2022/01/25 03:23:29;;;;;;;77.78;44.15;;;4.70;99.90;;;;;;4928098;29;20031;-94
2022/01/25 03:25:55;;;;;;;77.40;44.65;;;4.60;99.90;;;;;;4938688;29;20031;-94
2022/01/25 03:28:21;;;;;;;77.60;43.10;;;4.60;99.90;;;;;;4929259;29;20518;-94
2022/01/25 03:30:48;;;;;;;77.57;43.00;;;4.60;99.90;;;;;;4956731;29;20484;-95
2022/01/25 03:33:15;;;;;;;79.40;42.38;;;4.60;99.90;;;;;;4939084;28;20027;-95
2022/01/25 03:35:40;;;;;;;78.20;43.28;;;4.60;99.90;;;;;;4936381;29;20043;-94
2022/01/25 03:38:06;;;;;;;73.88;42.13;;;4.60;99.90;;;;;;4930865;29;20038;-94
2022/01/25 03:40:32;;;;;;;79.90;43.40;;;4.60;99.90;;;;;;4922954;29;20038;-93
2022/01/25 03:42:59;;;;;;;81.00;44.13;;;4.60;99.90;;;;;;4940149;29;20027;-93
2022/01/25 03:45:31;;;;;;;76.03;43.80;;;4.60;99.90;;;;;;4940201;29;20472;-94
2022/01/25 03:49:48;;;;;;;77.10;41.58;;;4.60;99.90;;;;;;4940376;29;20050;-95
2022/01/25 03:50:44;;;;;;;84.20;44.90;;;4.60;99.90;;;;;;4940501;29;20035;-93
2022/01/25 03:53:12;;;;;;;79.07;44.08;;;4.60;99.90;;;;;;4939669;29;20115;-94
2022/01/25 03:55:38;;;;;;;80.13;42.08;;;4.60;99.90;;;;;;4921345;29;20048;-94
2022/01/25 03:58:04;;;;;;;78.75;43.20;;;4.60;99.90;;;;;;4946212;28;20537;-94
2022/01/25 04:00:31;;;;;;;82.15;45.63;;;4.60;99.90;;;;;;4938087;29;20027;-95
2022/01/25 04:03:11;;;;;;;81.28;44.55;;;4.60;99.90;;;;;;4939931;29;20030;-94
2022/01/25 04:05:59;;;;;;;80.25;43.63;;;4.60;99.90;;;;;;4939707;29;20023;-95
2022/01/25 04:08:23;;;;;;;84.10;44.83;;;4.60;99.90;;;;;;4953168;28;20509;-95
2022/01/25 04:10:49;;;;;;;85.78;45.72;;;4.60;99.90;;;;;;4934689;29;20051;-95
2022/01/25 04:13:15;;;;;;;81.72;44.85;;;4.60;99.90;;;;;;4940055;29;20027;-95
2022/01/25 04:15:45;;;;;;;81.28;44.47;;;4.60;99.90;;;;;;4938486;29;20039;-94
2022/01/25 04:18:24;;;;;;;80.88;44.20;;;4.60;99.90;;;;;;4956527;29;20021;-94
2022/01/25 04:21:41;;;;;;;85.32;46.38;;;4.60;99.90;;;;;;4939819;29;20023;-94
2022/01/25 04:26:26;;;;;;;74.00;40.55;;;4.60;99.90;;;;;;4950650;29;20101;-95
2022/01/25 04:28:52;;;;;;;82.88;44.58;;;4.60;99.90;;;;;;4935481;29;20032;-93
2022/01/25 04:31:19;;;;;;;78.10;43.13;;;4.60;99.90;;;;;;4936421;29;20028;-95
2022/01/25 04:34:06;;;;;;;81.45;44.00;;;4.60;99.90;;;;;;4924583;29;20042;-93
2022/01/25 04:50:09;;;;;;;76.57;40.90;;;4.50;99.90;;;;;;4937535;29;20042;-94
2022/01/25 04:52:46;;;;;;;82.43;44.83;;;4.40;99.90;;;;;;4943888;29;20035;-94
2022/01/25 04:55:28;;;;;;;82.45;42.47;;;4.40;99.90;;;;;;4933087;29;20107;-94
2022/01/25 04:58:04;;;;;;;86.47;43.67;;;4.50;99.90;;;;;;4921350;29;20480;-95
2022/01/25 05:00:31;;;;;;;84.93;43.75;;;4.50;99.90;;;;;;4941065;28;20491;-95
2022/01/25 05:03:08;;;;;;;84.32;43.80;;;4.40;99.90;;;;;;4938869;29;20046;-94
2022/01/25 05:05:39;;;;;;;85.05;44.55;;;4.40;99.90;;;;;;4937433;29;20443;-93
2022/01/25 05:08:20;;;;;;;90.00;45.67;;;4.40;99.90;;;;;;4929335;29;20420;-94
2022/01/25 05:10:59;;;;;;;77.43;42.33;;;4.40;99.90;;;;;;4937661;29;20074;-95
2022/01/25 05:16:14;;;;;;;79.93;42.60;;;4.40;99.90;;;;;;4942129;29;20078;-94
2022/01/25 05:18:51;;;;;;;84.88;44.97;;;4.40;99.90;;;;;;4938334;29;20500;-94
2022/01/25 05:24:00;;;;;;;77.78;42.40;;;4.40;99.90;;;;;;4955588;29;20062;-95
2022/01/25 05:26:27;;;;;;;80.60;43.47;;;4.40;99.90;;;;;;4938617;29;20063;-95
2022/01/25 05:28:52;;;;;;;79.05;39.50;;;4.40;99.90;;;;;;4933536;29;20027;-95
2022/01/25 05:31:18;;;;;;;83.50;43.70;;;4.40;99.90;;;;;;4937911;29;20028;-94
2022/01/25 05:33:44;;;;;;;84.28;43.70;;;4.40;99.90;;;;;;4934700;29;20024;-94
2022/01/25 05:36:09;;;;;;;79.60;42.63;;;4.40;99.90;;;;;;4940159;29;20050;-94
2022/01/25 05:38:35;;;;;;;82.00;44.05;;;4.30;99.90;;;;;;4933974;29;20019;-93
2022/01/25 05:41:02;;;;;;;81.03;42.90;;;4.40;99.90;;;;;;4932994;29;20035;-94
2022/01/25 05:46:10;;;;;;;77.95;42.63;;;4.40;99.90;;;;;;4947745;28;20547;-95
2022/01/25 05:48:36;;;;;;;83.10;41.78;;;4.40;99.90;;;;;;4935888;29;20031;-94
2022/01/25 05:51:02;;;;;;;82.07;41.55;;;4.40;99.90;;;;;;4937359;29;20027;-92
2022/01/25 05:53:27;;;;;;;79.38;40.75;;;4.40;99.90;;;;;;4934981;29;20031;-91
2022/01/25 05:55:54;;;;;;;74.18;41.30;;;4.30;99.90;;;;;;4953618;29;20050;-92
2022/01/25 05:58:20;;;;;;;73.32;40.88;;;4.30;99.90;;;;;;4954741;29;20490;-92
2022/01/25 06:00:46;;;;;;;72.82;40.67;;;4.30;99.90;;;;;;4937080;29;20039;-91
2022/01/25 06:03:11;;;;;;;78.38;42.10;;;4.30;99.90;;;;;;4938175;29;20121;-91
2022/01/25 06:05:37;;;;;;;73.07;39.00;;;4.30;99.90;;;;;;4936407;29;20050;-91
2022/01/25 06:08:03;;;;;;;80.57;41.22;;;4.30;99.90;;;;;;4937997;29;20507;-91
2022/01/25 06:10:30;;;;;;;80.82;42.35;;;4.30;99.90;;;;;;4954650;29;20078;-91
2022/01/25 06:12:55;;;;;;;72.28;38.47;;;4.30;99.90;;;;;;4937855;29;20071;-90
2022/01/25 06:15:21;;;;;;;81.88;42.75;;;4.40;99.90;;;;;;4947543;28;20039;-92
2022/01/25 06:17:47;;;;;;;83.07;42.42;;;4.30;99.90;;;;;;4950841;28;20110;-92
2022/01/25 06:20:12;;;;;;;85.20;44.25;;;4.30;99.90;;;;;;4953181;29;20035;-92
2022/01/25 06:22:38;;;;;;;86.57;43.78;;;4.30;99.90;;;;;;4936057;29;20065;-92
2022/01/25 06:25:05;;;;;;;90.28;45.92;;;4.30;99.90;;;;;;4954337;29;20027;-92
2022/01/25 06:27:30;;;;;;;90.45;47.58;;;4.30;99.90;;;;;;4936536;29;20023;-92
2022/01/25 06:29:56;;;;;;;87.15;43.35;;;4.30;99.90;;;;;;4935106;29;20027;-92
2022/01/25 06:32:22;;;;;;;82.28;41.67;;;4.30;99.90;;;;;;4936869;29;20435;-93
2022/01/25 06:34:47;;;;;;;81.70;41.35;;;4.30;99.90;;;;;;4936654;29;20030;-92
2022/01/25 06:37:13;;;;;;;85.93;40.63;;;4.30;99.90;;;;;;4932555;29;20067;-94
2022/01/25 06:39:40;;;;;;;84.18;41.90;;;4.30;99.90;;;;;;4933686;28;20522;-93
2022/01/25 06:42:06;;;;;;;86.65;45.08;;;4.20;99.90;;;;;;4934792;28;20084;-92
2022/01/25 06:44:34;;;;;;;85.03;44.17;;;4.20;99.90;;;;;;4932371;29;20110;-94
2022/01/25 06:47:00;;;;;;;86.00;43.88;;;4.20;99.90;;;;;;4929942;29;20038;-94
2022/01/25 06:49:25;;;;;;;82.05;43.00;;;4.20;99.90;;;;;;4936158;29;20019;-93
2022/01/25 06:51:51;;;;;;;85.80;44.05;;;4.20;99.90;;;;;;4938520;29;20487;-93
2022/01/25 06:54:17;;;;;;;82.75;42.63;;;4.20;99.90;;;;;;4941926;29;20024;-94
2022/01/25 06:56:42;;;;;;;83.28;42.53;;;4.20;99.90;;;;;;4940375;28;20038;-92
2022/01/25 06:59:08;;;;;;;89.30;44.35;;;4.20;99.90;;;;;;4938445;29;20031;-92
2022/01/25 07:01:34;;;;;;;77.53;39.63;;;4.20;99.90;;;;;;4933334;29;20023;-92
2022/01/25 07:04:00;;;;;;;80.72;43.25;;;4.20;99.90;;;;;;4939889;29;20035;-91
2022/01/25 07:06:25;;;;;;;84.50;43.70;;;4.20;99.90;;;;;;4935833;29;20412;-93
2022/01/25 07:08:51;;;;;;;80.75;42.05;;;4.10;99.90;;;;;;4938672;28;20476;-93
2022/01/25 07:11:18;;;;;;;84.95;42.72;;;4.20;99.90;;;;;;4938313;28;20373;-93
2022/01/25 07:13:44;;;;;;;88.05;44.97;;;4.20;99.90;;;;;;4938229;29;20038;-93
2022/01/25 07:16:09;;;;;;;85.32;44.15;;;4.10;99.90;;;;;;4925196;29;20047;-92
2022/01/25 07:18:35;;;;;;;88.95;45.38;;;4.20;99.90;;;;;;4937708;28;20556;-94
2022/01/25 07:21:00;;;;;;;87.22;44.15;;;4.20;99.90;;;;;;4940618;29;20031;-93
2022/01/25 07:23:26;;;;;;;84.63;43.38;;;4.20;99.90;;;;;;4940173;29;20019;-92
2022/01/25 07:25:52;;;;;;;87.10;44.35;;;4.20;99.90;;;;;;4939094;29;20035;-94
2022/01/25 07:28:17;;;;;;;93.47;45.42;;;4.10;99.90;;;;;;4940682;29;20106;-94
2022/01/25 07:30:43;;;;;;;81.95;41.97;;;4.20;99.90;;;;;;4940004;28;20038;-93
2022/01/25 07:33:10;;;;;;;84.82;42.20;;;4.20;99.90;;;;;;4946534;29;20567;-94
2022/01/25 07:35:37;;;;;;;88.88;45.72;;;4.20;99.90;;;;;;4954891;29;20377;-94
2022/01/25 07:38:03;;;;;;;83.38;41.92;;;4.10;99.90;;;;;;4940603;29;20024;-93
2022/01/25 07:40:30;;;;;;;85.90;42.45;;;4.10;99.90;;;;;;4939645;29;20093;-94
2022/01/25 07:42:56;;;;;;;85.95;42.83;;;4.10;99.90;;;;;;4939143;29;20024;-94
2022/01/25 07:45:22;;;;;;;82.40;43.85;;;4.20;99.90;;;;;;4940217;29;20078;-94
2022/01/25 07:47:48;;;;;;;81.38;42.85;;;4.20;99.90;;;;;;4939378;29;20149;-93
2022/01/25 07:50:15;;;;;;;89.10;45.33;;;4.20;99.90;;;;;;4937852;29;20034;-93
2022/01/25 07:52:41;;;;;;;80.75;42.72;;;4.10;99.90;;;;;;4922888;29;20646;-92
2022/01/25 07:55:08;;;;;;;79.80;41.40;;;4.10;99.90;;;;;;4937084;29;20028;-92
2022/01/25 07:57:33;;;;;;;87.63;43.53;;;4.10;99.90;;;;;;4930761;29;20119;-93
2022/01/25 07:59:59;;;;;;;84.85;41.00;;;4.10;99.90;;;;;;4924193;29;20118;-92
2022/01/25 08:02:25;;;;;;;84.88;42.88;;;4.10;99.90;;;;;;4920717;29;20385;-92
2022/01/25 08:04:51;;;;;;;87.30;43.63;;;4.10;99.90;;;;;;4936639;29;20031;-93
2022/01/25 08:07:17;;;;;;;80.07;42.65;;;4.10;99.90;;;;;;4940816;29;20047;-93
2022/01/25 08:09:42;;;;;;;79.90;43.22;;;4.10;99.90;;;;;;4939815;28;20028;-91
2022/01/25 08:12:10;;;;;;;87.55;43.53;;;4.10;99.90;;;;;;4953561;28;20507;-92
2022/01/25 08:14:36;;;;;;;80.68;41.53;;;4.10;99.90;;;;;;4940236;29;20024;-92
2022/01/25 08:17:01;;;;;;;88.68;45.17;;;4.10;99.90;;;;;;4933186;29;20090;-93
2022/01/25 08:19:27;;;;;;;81.18;42.25;;;4.10;99.90;;;;;;4939821;28;20055;-93
2022/01/25 08:21:52;;;;;;;81.60;41.65;;;4.10;99.90;;;;;;4952629;29;20042;-92
2022/01/25 08:24:18;;;;;;;86.10;43.42;;;4.20;99.90;;;;;;4920277;29;20441;-91
2022/01/25 08:26:45;;;;;;;83.03;41.63;;;4.10;99.90;;;;;;4935416;29;20059;-95
2022/01/25 08:29:11;;;;;;;80.85;43.17;;;4.20;99.90;;;;;;4932489;29;20030;-94
2022/01/25 08:31:39;;;;;;;81.20;42.10;;;4.20;99.90;;;;;;4935366;29;20035;-96
2022/01/25 08:34:05;;;;;;;90.15;42.78;;;4.20;99.90;;;;;;4923217;29;20787;-94
2022/01/25 08:36:30;;;;;;;81.25;42.20;;;4.20;99.90;;;;;;4936562;29;20043;-94
2022/01/25 08:38:57;;;;;;;82.32;42.83;;;4.10;99.90;;;;;;4921187;29;20028;-95
2022/01/25 08:41:23;;;;;;;84.53;44.42;;;4.20;99.90;;;;;;4930930;29;20035;-91
2022/01/25 08:43:49;;;;;;;88.05;44.58;;;4.20;99.90;;;;;;4932934;29;20492;-93
2022/01/25 08:46:15;;;;;;;83.97;43.70;;;4.20;99.90;;;;;;4923610;29;20027;-95
2022/01/25 08:48:41;;;;;;;83.68;43.20;;;4.20;99.90;;;;;;4920838;29;20488;-93
2022/01/25 08:51:07;;;;;;;86.35;44.45;;;4.20;99.90;;;;;;4936686;29;20063;-95
2022/01/25 08:53:33;;;;;;;93.18;43.33;;;4.30;99.90;;;;;;4933763;29;20055;-94
2022/01/25 08:55:58;;;;;;;77.90;39.95;;;4.30;99.90;;;;;;4954251;28;20081;-95
2022/01/25 08:58:24;;;;;;;82.07;43.13;;;4.40;99.90;;;;;;4938495;29;20118;-94
2022/01/25 09:00:50;;;;;;;81.85;41.50;;;4.40;99.90;;;;;;4936271;28;20550;-94
2022/01/25 09:03:15;;;;;;;79.93;41.03;;;4.40;99.90;;;;;;4927468;29;20030;-93
2022/01/25 09:05:41;;;;;;;79.32;41.40;;;4.40;99.90;;;;;;4923915;29;20095;-93
2022/01/25 09:08:06;;;;;;;86.13;43.78;;;4.40;99.90;;;;;;4920708;29;20420;-94
2022/01/25 09:10:33;;;;;;;84.25;42.38;;;4.40;99.90;;;;;;4937190;29;20023;-92
2022/01/25 09:13:00;;;;;;;82.82;42.58;;;4.50;99.90;;;;;;4938564;29;20129;-94
2022/01/25 09:15:26;;;;;;;83.45;42.85;;;4.50;99.90;;;;;;4953486;28;20058;-94
2022/01/25 09:17:52;;;;;;;87.60;43.88;;;4.50;99.90;;;;;;4953561;29;20491;-94
2022/01/25 09:20:20;;;;;;;83.82;43.90;;;4.50;99.90;;;;;;4932151;29;20066;-94
2022/01/25 09:22:46;;;;;;;86.50;43.83;;;4.50;99.90;;;;;;4927957;29;20031;-93
2022/01/25 09:25:13;;;;;;;91.57;45.80;;;4.50;99.90;;;;;;4929970;29;20023;-94
2022/01/25 09:27:39;;;;;;;83.70;44.00;;;4.60;99.90;;;;;;4927862;29;20028;-94
2022/01/25 09:30:05;;;;;;;83.10;43.45;;;4.60;99.90;;;;;;4919455;29;20511;-94
2022/01/25 09:32:31;;;;;;;84.55;42.72;;;4.60;99.90;;;;;;4932662;29;20036;-89
2022/01/25 09:34:56;;;;;;;87.75;44.40;;;4.60;99.90;;;;;;4939920;29;20035;-95
2022/01/25 09:37:22;;;;;;;82.55;41.97;;;4.60;99.90;;;;;;4933715;29;20035;-92
2022/01/25 09:39:47;;;;;;;87.72;45.10;;;4.60;99.90;;;;;;4923930;29;20489;-94
2022/01/25 09:42:13;;;;;;;89.70;43.33;;;4.70;99.90;;;;;;4919240;29;20063;-93
2022/01/25 09:44:40;;;;;;;86.32;45.38;;;4.70;99.90;;;;;;4935520;28;20078;-92
2022/01/25 09:47:07;;;;;;;83.10;42.47;;;4.70;99.90;;;;;;4957557;28;20466;-92
2022/01/25 09:49:35;;;;;;;84.65;43.22;;;4.70;99.90;;;;;;4937954;29;20023;-93
2022/01/25 09:52:04;;;;;;;84.18;42.22;;;4.80;99.90;;;;;;4940881;28;20146;-93
2022/01/25 09:54:31;;;;;;;89.47;44.08;;;4.80;99.90;;;;;;4932405;29;20058;-93
2022/01/25 09:56:57;;;;;;;96.43;47.83;;;4.70;99.90;;;;;;4921268;29;20079;-92
2022/01/25 09:59:23;;;;;;;102.80;49.53;;;4.60;99.90;;;;;;4943376;29;20519;-92
2022/01/25 10:01:49;;;;;;;92.55;44.08;;;4.60;99.90;;;;;;4949979;29;20077;-93
2022/01/25 10:04:34;;;;;;;95.13;44.50;;;4.60;99.90;;;;;;4948331;29;20043;-92
2022/01/25 10:06:59;;;;;;;90.10;45.38;;;4.70;99.90;;;;;;4933048;28;20055;-93
2022/01/25 10:09:29;;;;;;;91.13;44.33;;;4.70;99.90;;;;;;4950871;28;20047;-93
2022/01/25 10:11:55;;;;;;;94.28;45.08;;;4.70;99.90;;;;;;4953629;29;20027;-93
2022/01/25 10:14:23;;;;;;;100.00;46.42;;;4.60;99.90;;;;;;4937622;29;20024;-91
2022/01/25 10:16:55;;;;;;;93.90;46.65;;;4.60;99.90;;;;;;4954676;29;20539;-93
2022/01/25 10:19:25;;;;;;;101.10;47.63;;;4.60;99.90;;;;;;4947721;28;20027;-94
2022/01/25 10:21:52;;;;;;;95.43;44.50;;;4.60;99.90;;;;;;4940340;29;20042;-93
2022/01/25 10:24:20;;;;;;;102.55;47.85;;;4.60;99.90;;;;;;4942528;29;20056;-93
2022/01/25 10:26:50;;;;;;;93.10;45.13;;;4.60;99.90;;;;;;4941268;29;20030;-94
2022/01/25 10:29:29;;;;;;;97.38;46.10;;;4.70;99.90;;;;;;4948099;29;20027;-94
2022/01/25 10:31:58;;;;;;;100.18;48.20;;;4.70;99.90;;;;;;4922770;29;20036;-92
2022/01/25 10:34:26;;;;;;;88.72;42.63;;;4.60;99.90;;;;;;4941351;29;20023;-94
2022/01/25 10:36:53;;;;;;;94.72;45.13;;;4.60;99.90;;;;;;4937199;29;20035;-93
2022/01/25 10:39:29;;;;;;;97.75;44.58;;;4.60;99.90;;;;;;4922509;29;20039;-92
2022/01/25 10:42:04;;;;;;;88.43;42.72;;;4.70;99.90;;;;;;4922192;29;20035;-92
2022/01/25 10:44:48;;;;;;;107.05;47.50;;;4.80;99.90;;;;;;4937349;29;20070;-93
2022/01/25 10:47:15;;;;;;;85.57;38.75;;;4.90;99.90;;;;;;4938583;29;20058;-94
2022/01/25 10:49:49;;;;;;;96.45;44.00;;;5.00;99.90;;;;;;4950732;29;20023;-93
2022/01/25 10:52:26;;;;;;;98.40;46.03;;;5.00;99.90;;;;;;4922212;29;20050;-93
2022/01/25 10:54:52;;;;;;;90.97;43.38;;;5.10;99.90;;;;;;4927759;29;20059;-92
2022/01/25 10:57:24;;;;;;;99.43;46.58;;;5.10;99.90;;;;;;4941255;29;20031;-92
2022/01/25 11:00:06;;;;;;;95.30;43.70;;;5.20;99.90;;;;;;4940554;29;20038;-93
2022/01/25 11:02:32;;;;;;;96.90;45.15;;;5.20;99.90;;;;;;4948279;28;20031;-94
2022/01/25 11:05:08;;;;;;;94.05;45.42;;;5.10;99.90;;;;;;4936717;29;20031;-93
2022/01/25 11:07:39;;;;;;;88.13;42.10;;;5.10;99.90;;;;;;4940414;29;20043;-93
2022/01/25 11:10:06;;;;;;;96.38;45.08;;;5.10;99.90;;;;;;4941178;29;20420;-94
2022/01/25 11:12:37;;;;;;;98.50;47.25;;;5.10;99.90;;;;;;4950340;29;20032;-94
2022/01/25 11:15:05;;;;;;;95.13;44.47;;;5.00;99.90;;;;;;4922137;29;20024;-93
2022/01/25 11:17:32;;;;;;;98.90;45.38;;;5.00;99.90;;;;;;4926401;29;20042;-94
2022/01/25 11:20:00;;;;;;;99.35;47.10;;;4.90;99.90;;;;;;4957861;29;20030;-94
2022/01/25 11:22:26;;;;;;;97.93;45.92;;;4.90;99.90;;;;;;4940803;29;20031;-93
2022/01/25 11:25:03;;;;;;;98.40;45.70;;;4.90;99.90;;;;;;4935907;29;20452;-93
2022/01/25 11:27:30;;;;;;;91.78;43.55;;;4.90;99.90;;;;;;4940503;29;20062;-92
2022/01/25 11:30:04;;;;;;;96.97;46.40;;;5.00;99.90;;;;;;4940658;29;20396;-93
2022/01/25 11:32:34;;;;;;;98.47;45.92;;;5.00;99.90;;;;;;4939790;29;20035;-92
2022/01/25 11:35:00;;;;;;;95.95;45.47;;;4.90;99.90;;;;;;4957514;28;20027;-93
2022/01/25 11:37:41;;;;;;;100.68;47.58;;;4.90;99.90;;;;;;4957496;29;20039;-93
2022/01/25 11:40:46;;;;;;;91.38;43.78;;;4.90;99.90;;;;;;4940441;29;20031;-93
2022/01/25 11:43:14;;;;;;;92.20;43.85;;;4.90;99.90;;;;;;4927892;28;20043;-92
2022/01/25 11:45:48;;;;;;;93.20;43.15;;;4.90;99.90;;;;;;4956829;29;20031;-93
2022/01/25 11:48:18;;;;;;;100.93;47.85;;;4.80;99.90;;;;;;4957418;29;20023;-92
2022/01/25 11:50:44;;;;;;;100.97;45.38;;;4.80;99.90;;;;;;4940103;29;20023;-93
2022/01/25 11:53:16;;;;;;;97.40;46.22;;;4.80;99.90;;;;;;4939316;29;20074;-92
2022/01/25 11:55:47;;;;;;;88.45;42.30;;;4.80;99.90;;;;;;4956909;29;20028;-92
2022/01/25 11:58:34;;;;;;;95.13;44.40;;;4.90;99.90;;;;;;4940216;29;20124;-91
2022/01/25 12:01:03;;;;;;;94.15;44.15;;;4.80;99.90;;;;;;4940095;29;20034;-92
2022/01/25 12:03:38;;;;;;;91.75;43.63;;;4.80;99.90;;;;;;4939549;29;20023;-92
2022/01/25 12:06:30;;;;;;;94.63;44.83;;;4.90;99.90;;;;;;4939761;29;20042;-93
2022/01/25 12:11:48;;;;;;;89.43;42.28;;;4.90;99.90;;;;;;4956008;29;20039;-92
2022/01/25 12:14:29;;;;;;;95.68;43.83;;;4.90;99.90;;;;;;4921007;29;20035;-92
2022/01/25 12:16:58;;;;;;;89.28;43.22;;;4.90;99.90;;;;;;4929665;29;20042;-90
2022/01/25 12:19:47;;;;;;;96.78;46.70;;;4.90;99.90;;;;;;4936928;29;20050;-91
2022/01/25 12:22:42;;;;;;;88.22;41.58;;;4.90;99.90;;;;;;4954768;29;20028;-91
2022/01/25 12:28:03;;;;;;;94.55;44.58;;;4.90;99.90;;;;;;4955979;28;20118;-91
2022/01/25 12:30:39;;;;;;;94.97;44.35;;;4.90;99.90;;;;;;4955528;29;20031;-90
2022/01/25 12:33:09;;;;;;;95.28;45.75;;;5.00;99.90;;;;;;4956954;29;20484;-91
2022/01/25 12:35:36;;;;;;;89.18;41.42;;;5.00;99.90;;;;;;4939418;29;20038;-91
2022/01/25 12:38:06;;;;;;;89.93;43.35;;;5.10;99.90;;;;;;4956654;29;20031;-91
2022/01/25 12:40:35;;;;;;;89.43;43.58;;;5.10;99.90;;;;;;4955652;29;20091;-91
2022/01/25 12:43:04;;;;;;;94.20;45.20;;;5.10;99.90;;;;;;4939290;29;20019;-91
2022/01/25 12:45:40;;;;;;;96.85;44.33;;;5.10;99.90;;;;;;4937964;29;20086;-91
2022/01/25 12:48:12;;;;;;;90.57;42.92;;;5.10;99.90;;;;;;4956466;29;20027;-91
2022/01/25 12:50:41;;;;;;;92.97;44.45;;;5.10;99.90;;;;;;4938914;29;20033;-91
2022/01/25 12:53:09;;;;;;;87.25;41.40;;;5.00;99.90;;;;;;4939051;29;20085;-90
2022/01/25 12:55:39;;;;;;;91.10;44.53;;;5.00;99.90;;;;;;4938638;29;20090;-90
2022/01/25 12:58:05;;;;;;;90.13;44.22;;;5.00;99.90;;;;;;4939135;29;20170;-91
2022/01/25 13:00:38;;;;;;;91.90;42.75;;;5.00;99.90;;;;;;4937708;29;20106;-92
2022/01/25 13:03:29;;;;;;;93.07;45.15;;;5.00;99.90;;;;;;4955221;29;20027;-91
2022/01/25 13:05:57;;;;;;;84.50;39.40;;;5.10;99.90;;;;;;4938905;29;20055;-91
2022/01/25 13:08:33;;;;;;;88.05;42.25;;;5.10;99.90;;;;;;4954083;29;20186;-92
2022/01/25 13:11:23;;;;;;;85.47;39.65;;;5.10;99.90;;;;;;4937234;29;20023;-92
2022/01/25 13:14:02;;;;;;;92.63;43.70;;;5.00;99.90;;;;;;4937978;29;20031;-92
2022/01/25 13:16:43;;;;;;;81.22;38.75;;;5.00;99.90;;;;;;4918592;29;20031;-92
2022/01/25 13:19:10;;;;;;;85.03;41.05;;;5.00;99.90;;;;;;4923228;29;20031;-92
2022/01/25 13:21:43;;;;;;;91.95;44.53;;;5.00;99.90;;;;;;4935382;29;20027;-91
2022/01/25 13:24:11;;;;;;;85.07;41.08;;;5.00;99.90;;;;;;4937287;29;20051;-91
2022/01/25 13:26:47;;;;;;;87.25;41.53;;;5.00;99.90;;;;;;4937689;29;20038;-92
2022/01/25 13:32:18;;;;;;;86.95;41.55;;;5.00;99.90;;;;;;4929190;29;20369;-93
2022/01/25 13:34:59;;;;;;;89.65;43.13;;;5.00;99.90;;;;;;4954963;28;20472;-93
2022/01/25 13:37:24;;;;;;;91.13;42.90;;;5.00;99.90;;;;;;4936296;29;20548;-92
2022/01/25 13:39:59;;;;;;;88.53;41.95;;;5.00;99.90;;;;;;4941824;29;20031;-92
2022/01/25 13:42:30;;;;;;;89.07;42.25;;;5.00;99.90;;;;;;4938126;29;20031;-92
2022/01/25 13:48:19;;;;;;;85.75;39.20;;;5.00;99.90;;;;;;4955554;29;20046;-91
2022/01/25 13:50:45;;;;;;;91.07;43.10;;;5.00;99.90;;;;;;4935001;29;20109;-92
2022/01/25 13:53:10;;;;;;;85.25;40.45;;;5.00;99.90;;;;;;4925715;29;20503;-92
2022/01/25 13:55:37;;;;;;;84.47;40.65;;;5.00;99.90;;;;;;4954681;28;20039;-92
2022/01/25 13:58:25;;;;;;;86.25;40.58;;;5.00;99.90;;;;;;4954958;29;20054;-91
2022/01/25 14:00:52;;;;;;;94.35;42.75;;;5.00;99.90;;;;;;4951067;29;20480;-92
2022/01/25 14:03:27;;;;;;;90.32;41.78;;;4.90;99.90;;;;;;4926866;29;20032;-91
2022/01/25 14:05:54;;;;;;;93.78;44.08;;;5.00;99.90;;;;;;4919538;29;20028;-92
2022/01/25 14:08:40;;;;;;;89.00;42.53;;;5.00;99.90;;;;;;4927028;29;20125;-93
2022/01/25 14:11:23;;;;;;;90.10;44.63;;;5.00;99.90;;;;;;4933744;28;20035;-93
2022/01/25 14:24:56;;;;;;;84.65;40.70;;;5.20;99.90;;;;;;4954359;28;20031;-93
2022/01/25 14:27:26;;;;;;;93.43;42.83;;;5.20;99.90;;;;;;4937202;29;20034;-92
2022/01/25 14:29:52;;;;;;;95.07;44.63;;;5.20;99.90;;;;;;4937178;29;20483;-91
2022/01/25 14:32:34;;;;;;;92.95;43.05;;;5.20;99.90;;;;;;4933641;29;20074;-92
2022/01/25 14:35:09;;;;;;;82.88;40.00;;;5.20;99.90;;;;;;4941193;29;20109;-93
2022/01/25 14:37:44;;;;;;;89.95;42.67;;;5.30;99.90;;;;;;4937031;29;20093;-92
2022/01/25 14:40:12;;;;;;;92.20;43.38;;;5.30;99.90;;;;;;4918710;29;20032;-92
2022/01/25 14:42:43;;;;;;;88.38;40.35;;;5.20;99.90;;;;;;4934917;29;20031;-93